Time;durP1;ratioP1;P1;durP2;ratioP2;P2;SDS_P1;SDS_P2;PMS_P1;PMS_P2;Temp;Humidity;BMP_temperature;BMP_pressure;BME280_temperature;BME280_humidity;BME280_pressure;Samples;Min_cycle;Max_cycle;Signal;HPM_P1;HPM_P2
2023/08/28 00:02:16;;;;;;;1.08;0.65;;;13.40;99.90;;;;;;5064135;28;20041;-64
2023/08/28 00:04:41;;;;;;;1.63;0.47;;;13.30;99.90;;;;;;5048640;28;20522;-64
2023/08/28 00:07:07;;;;;;;3.65;0.63;;;13.30;99.90;;;;;;5047970;28;20053;-65
2023/08/28 00:09:34;;;;;;;5.03;0.70;;;13.30;99.90;;;;;;5074971;28;20045;-64
2023/08/28 00:12:00;;;;;;;0.60;0.45;;;13.30;99.90;;;;;;5066001;28;20048;-64
2023/08/28 00:14:26;;;;;;;1.10;0.50;;;13.30;99.90;;;;;;5065921;28;20063;-65
2023/08/28 00:16:53;;;;;;;1.77;0.60;;;13.20;99.90;;;;;;5066532;28;20036;-65
2023/08/28 00:19:19;;;;;;;3.80;0.60;;;13.20;99.90;;;;;;5065663;28;20053;-65
2023/08/28 00:21:45;;;;;;;6.47;0.60;;;13.20;99.90;;;;;;5042348;28;20045;-65
2023/08/28 00:24:10;;;;;;;3.22;0.80;;;13.10;99.90;;;;;;5057826;28;20044;-65
2023/08/28 00:26:36;;;;;;;1.85;0.50;;;13.10;99.90;;;;;;5066273;28;20037;-65
2023/08/28 00:29:02;;;;;;;1.60;0.55;;;13.10;99.90;;;;;;5065968;28;20044;-64
2023/08/28 00:31:28;;;;;;;1.08;0.50;;;13.10;99.90;;;;;;5065745;28;20044;-65
2023/08/28 00:33:54;;;;;;;1.15;0.60;;;13.10;99.90;;;;;;5085918;28;20044;-65
2023/08/28 00:36:20;;;;;;;1.58;0.57;;;13.10;99.90;;;;;;5068204;28;20670;-64
2023/08/28 00:38:46;;;;;;;1.35;0.60;;;13.10;99.90;;;;;;5067040;28;20045;-65
2023/08/28 00:41:12;;;;;;;2.05;0.90;;;13.00;99.90;;;;;;5069876;28;20520;-65
2023/08/28 00:43:39;;;;;;;5.18;0.93;;;13.10;99.90;;;;;;5070049;28;20486;-65
2023/08/28 00:46:05;;;;;;;2.17;0.43;;;13.00;99.90;;;;;;5069664;28;20052;-64
2023/08/28 00:48:32;;;;;;;1.42;0.57;;;13.00;99.90;;;;;;5069485;28;20040;-64
2023/08/28 00:51:00;;;;;;;1.42;0.70;;;13.10;99.90;;;;;;5052713;28;20061;-65
2023/08/28 00:53:26;;;;;;;0.60;0.60;;;13.00;99.90;;;;;;5051671;28;20045;-65
2023/08/28 00:55:53;;;;;;;0.63;0.50;;;13.00;99.90;;;;;;5052732;28;20067;-64
2023/08/28 00:58:19;;;;;;;1.67;0.45;;;13.00;99.90;;;;;;5068877;28;20098;-65
2023/08/28 01:00:44;;;;;;;1.95;0.63;;;13.00;99.90;;;;;;5053073;28;20086;-65
2023/08/28 01:03:10;;;;;;;0.40;0.40;;;13.00;99.90;;;;;;5069085;28;20044;-65
2023/08/28 01:06:08;;;;;;;3.22;0.70;;;12.90;99.90;;;;;;5069514;28;20056;-65
2023/08/28 01:08:41;;;;;;;2.33;0.68;;;13.00;99.90;;;;;;5035069;28;20497;-64
2023/08/28 01:11:32;;;;;;;0.57;0.52;;;12.90;99.90;;;;;;5067361;28;20430;-65
2023/08/28 01:14:08;;;;;;;1.85;0.63;;;13.00;99.90;;;;;;5069284;28;20048;-64
2023/08/28 01:16:37;;;;;;;2.97;0.70;;;13.00;99.90;;;;;;5069715;28;20502;-64
2023/08/28 01:19:06;;;;;;;2.35;0.80;;;13.00;99.90;;;;;;5068729;28;20044;-64
2023/08/28 01:21:32;;;;;;;0.93;0.82;;;13.00;99.90;;;;;;5069785;28;20501;-64
2023/08/28 01:24:01;;;;;;;5.38;1.10;;;13.00;99.90;;;;;;5075402;28;20176;-64
2023/08/28 01:26:27;;;;;;;4.10;0.68;;;12.90;99.90;;;;;;5069661;28;20119;-65
2023/08/28 01:28:52;;;;;;;2.30;0.68;;;13.00;99.90;;;;;;5069454;28;20124;-64
2023/08/28 01:31:18;;;;;;;2.42;0.60;;;13.00;99.90;;;;;;5033699;28;20040;-64
2023/08/28 01:33:44;;;;;;;1.92;0.70;;;13.10;99.90;;;;;;5075548;28;20087;-64
2023/08/28 01:36:21;;;;;;;3.60;0.68;;;13.10;99.90;;;;;;5063774;28;20557;-64
2023/08/28 01:39:16;;;;;;;0.98;0.55;;;13.20;99.90;;;;;;5069800;28;20047;-65
2023/08/28 01:41:43;;;;;;;2.70;0.60;;;13.10;99.90;;;;;;5068048;28;20048;-65
2023/08/28 01:44:10;;;;;;;0.60;0.55;;;13.20;99.90;;;;;;5058954;28;20106;-65
2023/08/28 01:46:36;;;;;;;4.45;1.23;;;13.20;99.90;;;;;;5068988;28;20119;-65
2023/08/28 01:49:02;;;;;;;7.85;0.73;;;13.30;99.90;;;;;;5051609;28;20094;-65
2023/08/28 01:51:28;;;;;;;4.75;0.90;;;13.30;99.90;;;;;;5084661;28;20052;-65
2023/08/28 01:53:54;;;;;;;2.38;0.90;;;13.40;99.90;;;;;;5051705;28;20074;-65
2023/08/28 01:56:22;;;;;;;3.80;0.90;;;13.40;99.90;;;;;;5069060;28;20079;-65
2023/08/28 01:58:58;;;;;;;1.35;0.55;;;13.40;99.90;;;;;;5067699;28;20437;-65
2023/08/28 02:01:25;;;;;;;3.75;1.15;;;13.40;99.90;;;;;;5050261;28;20417;-65
2023/08/28 02:03:52;;;;;;;4.55;0.70;;;13.40;99.90;;;;;;5068281;28;20478;-65
2023/08/28 02:06:18;;;;;;;1.15;0.90;;;13.40;99.90;;;;;;5067716;28;20084;-65
2023/08/28 02:08:44;;;;;;;2.10;0.70;;;13.40;99.90;;;;;;5052686;28;20048;-65
2023/08/28 02:11:10;;;;;;;3.08;0.60;;;13.30;99.90;;;;;;5067620;28;20056;-65
2023/08/28 02:13:36;;;;;;;1.95;0.85;;;13.30;99.90;;;;;;5068997;28;20567;-65
2023/08/28 02:16:02;;;;;;;1.27;0.70;;;13.40;99.90;;;;;;5073913;28;20102;-65
2023/08/28 02:18:30;;;;;;;4.32;1.23;;;13.30;99.90;;;;;;5068580;28;20048;-65
2023/08/28 02:20:55;;;;;;;3.72;0.80;;;13.30;99.90;;;;;;5067832;28;20387;-64
2023/08/28 02:23:21;;;;;;;1.75;0.57;;;13.30;99.90;;;;;;5067773;28;20032;-65
2023/08/28 02:25:49;;;;;;;1.88;0.70;;;13.30;99.90;;;;;;5053672;28;20044;-65
2023/08/28 02:28:18;;;;;;;9.90;0.65;;;13.40;99.90;;;;;;5053669;28;20398;-65
2023/08/28 02:30:45;;;;;;;0.95;0.60;;;13.40;99.90;;;;;;5068764;28;20444;-65
2023/08/28 02:33:11;;;;;;;2.00;0.50;;;13.40;99.90;;;;;;5067103;28;20406;-65
2023/08/28 02:35:37;;;;;;;1.10;0.50;;;13.30;99.90;;;;;;5069835;28;20074;-65
2023/08/28 02:38:03;;;;;;;0.45;0.43;;;13.40;99.90;;;;;;5068388;28;20071;-65
2023/08/28 02:40:29;;;;;;;3.10;0.55;;;13.30;99.90;;;;;;5049948;28;20284;-65
2023/08/28 02:42:55;;;;;;;1.70;0.50;;;13.30;99.90;;;;;;5068016;28;20079;-65
2023/08/28 02:45:21;;;;;;;1.17;0.70;;;13.30;99.90;;;;;;5049578;28;20056;-65
2023/08/28 02:47:47;;;;;;;1.75;0.80;;;13.30;99.90;;;;;;5053093;28;20155;-65
2023/08/28 02:50:12;;;;;;;1.33;0.50;;;13.30;99.90;;;;;;5049220;28;20056;-65
2023/08/28 02:52:38;;;;;;;1.23;0.80;;;13.30;99.90;;;;;;5050339;28;20037;-65
2023/08/28 02:55:04;;;;;;;2.33;0.40;;;13.20;99.90;;;;;;5048439;28;20509;-64
2023/08/28 02:57:30;;;;;;;3.70;0.90;;;13.20;99.90;;;;;;5067644;28;20726;-64
2023/08/28 02:59:56;;;;;;;1.63;0.68;;;13.20;99.90;;;;;;5067835;28;20040;-65
2023/08/28 03:02:21;;;;;;;2.83;0.80;;;13.10;99.90;;;;;;5048966;28;20041;-64
2023/08/28 03:04:47;;;;;;;1.30;0.70;;;13.10;99.90;;;;;;5049588;28;20052;-64
2023/08/28 03:07:13;;;;;;;2.35;0.63;;;13.10;99.90;;;;;;5048388;28;20391;-65
2023/08/28 03:09:38;;;;;;;2.03;0.73;;;13.10;99.90;;;;;;5068273;28;20130;-65
2023/08/28 03:12:04;;;;;;;0.50;0.50;;;13.10;99.90;;;;;;5056029;28;20116;-65
2023/08/28 03:14:30;;;;;;;2.20;0.70;;;13.10;99.90;;;;;;5066496;28;20115;-65
2023/08/28 03:17:08;;;;;;;1.45;0.75;;;13.00;99.90;;;;;;5132154;27;1272315;-64
2023/08/28 03:19:34;;;;;;;0.75;0.50;;;13.00;99.90;;;;;;5147417;27;20047;-64
2023/08/28 03:22:00;;;;;;;2.15;0.55;;;13.00;99.90;;;;;;5128259;27;20043;-64
2023/08/28 03:24:26;;;;;;;1.15;0.70;;;12.90;99.90;;;;;;5146928;27;20043;-64
2023/08/28 03:26:52;;;;;;;2.42;0.70;;;12.90;99.90;;;;;;5127680;27;20050;-64
2023/08/28 03:29:17;;;;;;;0.70;0.70;;;12.90;99.90;;;;;;5146684;27;20051;-64
2023/08/28 03:31:43;;;;;;;3.78;1.20;;;12.90;99.90;;;;;;5152413;27;20083;-64
2023/08/28 03:34:09;;;;;;;0.75;0.47;;;12.90;99.90;;;;;;5130990;27;20047;-64
2023/08/28 03:36:34;;;;;;;0.68;0.68;;;12.90;99.90;;;;;;5145617;27;20476;-64
2023/08/28 03:39:00;;;;;;;8.30;0.93;;;12.90;99.90;;;;;;5158042;27;20050;-64
2023/08/28 03:41:26;;;;;;;2.47;0.55;;;12.80;99.90;;;;;;5145825;27;20047;-64
2023/08/28 03:43:51;;;;;;;3.78;1.05;;;12.80;99.90;;;;;;5143653;27;20086;-64
2023/08/28 03:46:17;;;;;;;1.88;0.63;;;12.80;99.90;;;;;;5165489;27;20043;-64
2023/08/28 03:48:43;;;;;;;3.05;1.00;;;12.70;99.90;;;;;;5141019;27;20039;-64
2023/08/28 03:51:09;;;;;;;8.85;0.77;;;12.70;99.90;;;;;;5146574;27;20456;-64
2023/08/28 03:53:35;;;;;;;5.32;0.80;;;12.70;99.90;;;;;;5154552;27;20043;-64
2023/08/28 03:56:00;;;;;;;1.35;0.70;;;12.70;99.90;;;;;;5137617;27;20101;-64
2023/08/28 03:58:26;;;;;;;0.75;0.70;;;12.60;99.90;;;;;;5145688;27;20053;-64
2023/08/28 04:00:55;;;;;;;3.15;0.50;;;12.60;99.90;;;;;;5146518;27;20137;-64
2023/08/28 04:03:21;;;;;;;3.55;0.82;;;12.60;99.90;;;;;;5163088;27;20046;-64
2023/08/28 04:05:48;;;;;;;2.88;0.50;;;12.50;99.90;;;;;;5145493;27;20061;-64
2023/08/28 04:08:15;;;;;;;2.13;0.80;;;12.50;99.90;;;;;;5146440;27;20918;-64
2023/08/28 04:10:41;;;;;;;4.57;0.90;;;12.50;99.90;;;;;;5146243;27;20051;-64
2023/08/28 04:13:08;;;;;;;8.25;1.55;;;12.50;99.90;;;;;;5145693;27;20317;-64
2023/08/28 04:15:33;;;;;;;4.93;0.70;;;12.50;99.90;;;;;;5127238;27;20084;-64
2023/08/28 04:17:59;;;;;;;0.50;0.50;;;12.40;99.90;;;;;;5140472;27;20527;-64
2023/08/28 04:20:25;;;;;;;3.22;0.70;;;12.40;99.90;;;;;;5144453;27;20145;-64
2023/08/28 04:22:51;;;;;;;4.57;0.52;;;12.30;99.90;;;;;;5143281;27;20042;-64
2023/08/28 04:25:17;;;;;;;2.13;0.68;;;12.30;99.90;;;;;;5142659;27;20476;-64
2023/08/28 04:27:42;;;;;;;3.42;0.90;;;12.40;99.90;;;;;;5119135;27;20404;-64
2023/08/28 04:30:09;;;;;;;2.60;0.70;;;12.40;99.90;;;;;;5112872;27;20039;-65
2023/08/28 04:32:36;;;;;;;4.38;1.48;;;12.30;99.90;;;;;;5145047;27;20115;-64
2023/08/28 04:35:02;;;;;;;3.10;0.80;;;12.30;99.90;;;;;;5132596;27;20090;-64
2023/08/28 04:37:28;;;;;;;2.00;0.80;;;12.30;99.90;;;;;;5150422;27;20518;-64
2023/08/28 04:39:54;;;;;;;2.33;0.70;;;12.30;99.90;;;;;;5131725;27;20031;-64
2023/08/28 04:42:20;;;;;;;1.10;1.00;;;12.30;99.90;;;;;;5112526;27;20071;-64
2023/08/28 04:44:46;;;;;;;3.30;0.70;;;12.30;99.90;;;;;;5130056;27;20047;-64
2023/08/28 04:47:13;;;;;;;4.05;0.93;;;12.30;99.90;;;;;;5139567;27;20042;-64
2023/08/28 04:49:39;;;;;;;6.30;1.02;;;12.30;99.90;;;;;;5149224;27;20046;-64
2023/08/28 04:52:05;;;;;;;3.28;0.75;;;12.30;99.90;;;;;;5130955;27;20468;-64
2023/08/28 04:54:32;;;;;;;2.58;1.70;;;12.40;99.90;;;;;;5129745;27;20043;-64
2023/08/28 04:56:58;;;;;;;3.08;0.60;;;12.30;99.90;;;;;;5142713;27;20169;-64
2023/08/28 04:59:24;;;;;;;0.80;0.80;;;12.30;99.90;;;;;;5140770;27;20072;-64
2023/08/28 05:01:49;;;;;;;1.42;0.77;;;12.40;99.90;;;;;;5116157;27;20060;-64
2023/08/28 05:04:15;;;;;;;0.63;0.47;;;12.30;99.90;;;;;;5130663;27;20047;-64
2023/08/28 05:06:41;;;;;;;3.85;0.55;;;12.30;99.90;;;;;;5127769;27;20083;-64
2023/08/28 05:09:06;;;;;;;3.28;0.75;;;12.40;99.90;;;;;;5114643;27;20043;-64
2023/08/28 05:11:32;;;;;;;7.20;1.00;;;12.30;99.90;;;;;;5140639;27;20062;-64
2023/08/28 05:13:58;;;;;;;2.63;0.75;;;12.30;99.90;;;;;;5111543;27;20050;-64
2023/08/28 05:16:24;;;;;;;2.83;0.68;;;12.40;99.90;;;;;;5129628;27;20378;-64
2023/08/28 05:18:49;;;;;;;1.77;0.52;;;12.30;99.90;;;;;;5147926;27;20062;-65
2023/08/28 05:21:15;;;;;;;1.88;0.70;;;12.40;99.90;;;;;;5131819;27;20051;-65
2023/08/28 05:23:41;;;;;;;1.08;0.65;;;12.40;99.90;;;;;;5128654;27;20039;-64
2023/08/28 05:26:07;;;;;;;2.55;0.70;;;12.40;99.90;;;;;;5130190;27;20492;-65
2023/08/28 05:28:35;;;;;;;1.05;0.60;;;12.40;99.90;;;;;;5128123;27;20511;-65
2023/08/28 05:31:05;;;;;;;2.40;0.70;;;12.30;99.90;;;;;;5113438;27;20051;-65
2023/08/28 05:33:31;;;;;;;2.70;0.80;;;12.40;99.90;;;;;;5142683;27;20050;-65
2023/08/28 05:35:57;;;;;;;1.27;0.70;;;12.40;99.90;;;;;;5114927;27;20050;-65
2023/08/28 05:38:23;;;;;;;0.85;0.80;;;12.40;99.90;;;;;;5149420;27;20043;-64
2023/08/28 05:40:49;;;;;;;1.58;0.63;;;12.40;99.90;;;;;;5136622;27;20076;-65
2023/08/28 05:43:14;;;;;;;1.20;0.82;;;12.40;99.90;;;;;;5129839;27;20039;-65
2023/08/28 05:45:40;;;;;;;2.67;0.68;;;12.40;99.90;;;;;;5109504;27;20052;-65
2023/08/28 05:48:07;;;;;;;3.97;1.23;;;12.50;99.90;;;;;;5128548;27;20486;-65
2023/08/28 05:50:32;;;;;;;1.83;0.75;;;12.50;99.90;;;;;;5109929;27;20035;-64
2023/08/28 05:52:58;;;;;;;1.95;0.80;;;12.60;99.90;;;;;;5129430;27;20096;-65
2023/08/28 05:55:24;;;;;;;0.75;0.75;;;12.60;99.90;;;;;;5129345;27;20047;-65
2023/08/28 05:57:50;;;;;;;1.85;1.05;;;12.70;99.90;;;;;;5139957;27;20043;-65
2023/08/28 06:00:16;;;;;;;0.82;0.82;;;12.80;99.90;;;;;;5113904;27;20134;-65
2023/08/28 06:02:42;;;;;;;1.63;0.80;;;12.90;99.90;;;;;;5136819;27;20402;-65
2023/08/28 06:05:09;;;;;;;2.40;1.65;;;12.90;99.90;;;;;;5125320;27;20046;-65
2023/08/28 06:07:37;;;;;;;1.70;1.13;;;13.00;99.90;;;;;;5127503;27;20027;-65
2023/08/28 06:10:04;;;;;;;3.90;1.20;;;13.20;99.90;;;;;;5140068;27;20461;-65
2023/08/28 06:12:30;;;;;;;1.85;1.23;;;13.40;99.90;;;;;;5132300;27;20085;-65
2023/08/28 06:14:56;;;;;;;2.80;1.13;;;13.50;99.90;;;;;;5127902;27;20515;-65
2023/08/28 06:17:23;;;;;;;1.52;1.17;;;13.60;99.90;;;;;;5091011;27;20502;-65
2023/08/28 06:19:49;;;;;;;6.40;1.60;;;13.70;99.90;;;;;;5127292;27;20039;-65
2023/08/28 06:22:15;;;;;;;4.10;1.52;;;13.80;99.90;;;;;;5128805;27;20106;-65
2023/08/28 06:24:42;;;;;;;4.38;1.17;;;13.90;99.90;;;;;;5091503;27;20104;-65
2023/08/28 06:27:08;;;;;;;3.20;1.20;;;14.00;99.90;;;;;;5129297;27;20043;-65
2023/08/28 06:29:33;;;;;;;4.53;0.90;;;14.10;99.90;;;;;;5128022;27;20062;-65
2023/08/28 06:31:59;;;;;;;3.30;1.30;;;14.00;99.90;;;;;;5119628;27;20135;-66
2023/08/28 06:34:25;;;;;;;2.83;1.25;;;14.10;99.90;;;;;;5133668;27;20043;-65
2023/08/28 06:36:51;;;;;;;1.67;0.90;;;14.10;99.90;;;;;;5108418;27;20043;-65
2023/08/28 06:39:18;;;;;;;6.47;1.10;;;14.10;99.90;;;;;;5110343;27;20533;-65
2023/08/28 06:41:44;;;;;;;4.97;1.25;;;14.10;99.90;;;;;;5126598;27;20408;-65
2023/08/28 06:44:11;;;;;;;2.63;1.10;;;14.20;99.90;;;;;;5128887;27;20047;-65
2023/08/28 06:46:37;;;;;;;3.50;1.15;;;14.20;99.90;;;;;;5138365;27;20059;-65
2023/08/28 06:49:03;;;;;;;4.32;1.10;;;14.30;99.90;;;;;;5139106;27;20039;-65
2023/08/28 06:51:29;;;;;;;1.48;0.93;;;14.40;99.90;;;;;;5127400;27;20054;-65
2023/08/28 06:53:55;;;;;;;1.55;0.80;;;14.40;99.90;;;;;;5091747;27;20035;-65
2023/08/28 06:56:21;;;;;;;1.50;1.00;;;14.50;99.90;;;;;;5114647;27;20043;-65
2023/08/28 06:58:46;;;;;;;2.35;1.02;;;14.60;99.90;;;;;;5133939;27;20038;-65
2023/08/28 07:01:12;;;;;;;3.97;1.17;;;14.70;99.90;;;;;;5132516;27;20407;-65
2023/08/28 07:03:38;;;;;;;4.15;0.85;;;14.90;99.90;;;;;;5113703;27;20043;-65
2023/08/28 07:06:04;;;;;;;4.05;1.05;;;15.10;99.90;;;;;;5127779;27;20047;-66
2023/08/28 07:08:30;;;;;;;1.85;0.80;;;15.40;99.90;;;;;;5127655;27;20050;-65
2023/08/28 07:10:55;;;;;;;4.13;0.80;;;15.60;99.90;;;;;;5141093;27;20031;-65
2023/08/28 07:13:21;;;;;;;2.30;0.93;;;15.90;99.90;;;;;;5128092;27;20057;-65
2023/08/28 07:15:47;;;;;;;0.85;0.60;;;16.20;99.90;;;;;;5126488;27;20069;-65
2023/08/28 07:18:13;;;;;;;1.65;0.77;;;16.40;99.90;;;;;;5128650;27;20507;-65
2023/08/28 07:20:38;;;;;;;5.13;1.30;;;16.70;99.90;;;;;;5126651;27;20051;-65
2023/08/28 07:23:04;;;;;;;8.38;1.15;;;17.00;99.90;;;;;;5127418;27;20481;-65
2023/08/28 07:25:31;;;;;;;1.70;0.90;;;17.30;99.90;;;;;;5126833;27;20476;-65
2023/08/28 07:27:57;;;;;;;4.72;0.80;;;17.50;99.90;;;;;;5128816;27;20124;-65
2023/08/28 07:30:23;;;;;;;1.98;0.57;;;17.70;99.90;;;;;;5137167;27;20043;-64
2023/08/28 07:32:48;;;;;;;4.25;0.70;;;18.00;99.90;;;;;;5126405;27;20108;-65
2023/08/28 07:35:14;;;;;;;5.20;0.90;;;18.20;99.90;;;;;;5125974;27;20068;-65
2023/08/28 07:37:40;;;;;;;4.30;0.80;;;18.50;99.90;;;;;;5126581;27;20781;-65
2023/08/28 07:40:07;;;;;;;5.32;0.65;;;18.60;99.90;;;;;;5127210;27;20402;-65
2023/08/28 07:42:33;;;;;;;3.00;0.50;;;18.80;99.90;;;;;;5126265;27;20043;-65
2023/08/28 07:44:59;;;;;;;1.23;0.68;;;19.00;99.90;;;;;;5144825;27;20043;-65
2023/08/28 07:47:26;;;;;;;1.52;0.60;;;19.30;99.90;;;;;;5137767;27;20047;-65
2023/08/28 07:49:52;;;;;;;2.08;0.57;;;19.50;99.90;;;;;;5126996;27;20035;-65
2023/08/28 07:52:17;;;;;;;0.75;0.52;;;19.60;99.90;;;;;;5128204;27;20095;-65
2023/08/28 07:54:43;;;;;;;1.65;0.70;;;19.80;99.90;;;;;;5127749;27;20047;-65
2023/08/28 07:57:09;;;;;;;5.25;0.80;;;19.90;99.90;;;;;;5141418;27;20051;-65
2023/08/28 07:59:34;;;;;;;2.80;0.73;;;19.90;99.90;;;;;;5116676;27;20397;-65
2023/08/28 08:02:00;;;;;;;3.55;0.98;;;20.00;99.90;;;;;;5129141;27;20055;-65
2023/08/28 08:04:26;;;;;;;1.65;0.60;;;20.00;99.90;;;;;;5137157;27;20377;-65
2023/08/28 08:06:52;;;;;;;3.95;0.70;;;20.20;99.90;;;;;;5136982;27;20506;-65
2023/08/28 08:09:18;;;;;;;1.10;0.60;;;20.30;99.90;;;;;;5115567;27;20034;-65
2023/08/28 08:11:44;;;;;;;4.35;0.70;;;20.40;99.90;;;;;;5140124;27;20053;-65
2023/08/28 08:14:10;;;;;;;8.55;0.82;;;20.40;99.90;;;;;;5112970;27;20438;-65
2023/08/28 08:16:36;;;;;;;5.88;0.80;;;20.30;99.90;;;;;;5136593;27;20062;-65
2023/08/28 08:19:03;;;;;;;4.70;0.95;;;20.30;99.90;;;;;;5139291;27;20049;-65
2023/08/28 08:21:30;;;;;;;5.90;0.90;;;20.10;99.90;;;;;;5132105;27;20047;-65
2023/08/28 08:23:58;;;;;;;1.27;0.70;;;20.00;99.90;;;;;;5134201;27;20131;-65
2023/08/28 08:26:24;;;;;;;2.92;0.80;;;19.90;99.90;;;;;;5136170;27;20086;-65
2023/08/28 08:28:50;;;;;;;0.60;0.55;;;19.90;99.90;;;;;;5121319;27;20055;-65
2023/08/28 08:31:15;;;;;;;3.67;1.10;;;19.90;99.90;;;;;;5134308;27;20081;-65
2023/08/28 08:33:43;;;;;;;4.43;0.82;;;20.00;99.90;;;;;;5129629;27;20066;-65
2023/08/28 08:36:13;;;;;;;4.63;0.75;;;19.90;99.90;;;;;;5111988;27;20133;-65
2023/08/28 08:38:40;;;;;;;0.80;0.40;;;19.60;99.90;;;;;;5139642;27;20046;-65
2023/08/28 08:41:08;;;;;;;0.85;0.60;;;19.50;99.90;;;;;;5130712;27;20065;-66
2023/08/28 08:43:34;;;;;;;5.65;1.00;;;19.70;99.90;;;;;;5131514;27;20047;-65
2023/08/28 08:46:04;;;;;;;1.23;0.65;;;19.90;99.90;;;;;;5140639;27;20074;-66
2023/08/28 08:48:33;;;;;;;1.08;0.63;;;20.00;98.10;;;;;;5133698;27;20084;-65
2023/08/28 08:51:06;;;;;;;3.70;0.90;;;20.10;97.10;;;;;;5105811;27;20074;-66
2023/08/28 08:53:55;;;;;;;1.75;0.43;;;19.90;94.00;;;;;;5141655;27;20039;-66
2023/08/28 08:56:23;;;;;;;3.23;0.60;;;19.60;95.60;;;;;;5142525;27;20517;-66
2023/08/28 08:58:50;;;;;;;2.10;0.75;;;19.40;97.50;;;;;;5136227;27;20364;-66
2023/08/28 09:01:17;;;;;;;4.95;0.50;;;19.10;99.10;;;;;;5124045;27;20043;-65
2023/08/28 09:03:44;;;;;;;3.30;0.82;;;19.00;99.90;;;;;;5142465;27;20035;-64
2023/08/28 09:06:11;;;;;;;4.28;0.60;;;18.80;99.90;;;;;;5147043;27;20046;-63
2023/08/28 09:08:40;;;;;;;3.05;0.68;;;18.70;99.90;;;;;;5122103;27;20038;-64
2023/08/28 09:11:06;;;;;;;1.60;0.67;;;18.60;99.90;;;;;;5126538;27;20040;-64
2023/08/28 09:13:33;;;;;;;4.53;0.95;;;18.50;99.90;;;;;;5142771;27;20047;-64
2023/08/28 09:15:58;;;;;;;1.65;0.52;;;18.60;99.90;;;;;;5111504;27;20055;-64
2023/08/28 09:18:28;;;;;;;1.77;0.80;;;18.60;99.90;;;;;;5126279;27;20413;-64
2023/08/28 09:21:11;;;;;;;3.90;0.85;;;18.50;99.90;;;;;;5122281;27;20396;-64
2023/08/28 09:23:48;;;;;;;7.55;0.98;;;18.50;99.90;;;;;;5128559;27;20476;-63
2023/08/28 09:26:22;;;;;;;0.82;0.50;;;18.50;99.90;;;;;;5111375;27;20043;-63
2023/08/28 09:29:07;;;;;;;1.92;0.63;;;18.40;99.90;;;;;;5109060;28;20047;-63
2023/08/28 09:31:39;;;;;;;1.08;0.40;;;18.40;99.90;;;;;;5126724;27;20100;-62
2023/08/28 09:34:05;;;;;;;2.15;0.50;;;18.30;99.90;;;;;;5127969;27;20046;-63
2023/08/28 09:36:37;;;;;;;0.28;0.28;;;18.10;97.40;;;;;;5127970;27;20082;-63
2023/08/28 09:39:05;;;;;;;3.60;0.30;;;18.10;99.70;;;;;;5118182;27;20555;-63
2023/08/28 09:41:48;;;;;;;3.42;0.30;;;18.20;95.90;;;;;;5109783;27;20048;-63
2023/08/28 09:44:16;;;;;;;1.75;0.32;;;18.50;95.60;;;;;;5119815;27;20043;-63
2023/08/28 09:46:43;;;;;;;2.28;0.68;;;18.70;88.40;;;;;;5121262;27;20035;-63
2023/08/28 09:49:11;;;;;;;1.45;0.40;;;18.90;90.80;;;;;;5109728;27;20109;-63
2023/08/28 09:51:43;;;;;;;1.60;0.28;;;19.20;90.60;;;;;;5118282;27;20439;-63
2023/08/28 09:54:11;;;;;;;0.20;0.20;;;19.20;89.20;;;;;;5114793;27;20460;-63
2023/08/28 09:56:38;;;;;;;2.05;0.52;;;19.20;88.80;;;;;;5123153;27;20070;-62
2023/08/28 09:59:06;;;;;;;1.85;0.35;;;18.90;70.10;;;;;;5124493;27;20043;-63
2023/08/28 10:01:34;;;;;;;3.45;0.60;;;18.70;75.00;;;;;;5117098;27;20880;-63
2023/08/28 10:04:04;;;;;;;1.20;0.30;;;18.60;78.40;;;;;;5104601;27;20524;-63
2023/08/28 10:06:33;;;;;;;1.60;0.57;;;18.40;81.90;;;;;;5121136;27;20051;-62
2023/08/28 10:09:05;;;;;;;1.92;0.47;;;18.40;92.80;;;;;;5094277;27;20073;-62
2023/08/28 10:11:37;;;;;;;1.50;0.40;;;18.30;95.90;;;;;;5121005;27;20491;-63
2023/08/28 10:14:04;;;;;;;0.80;0.40;;;18.20;97.50;;;;;;5105398;28;20531;-63
2023/08/28 10:16:44;;;;;;;2.58;0.40;;;18.10;95.50;;;;;;5116295;27;20130;-63
2023/08/28 10:19:21;;;;;;;0.40;0.30;;;18.00;91.40;;;;;;5127456;27;20114;-63
2023/08/28 10:21:49;;;;;;;1.40;0.40;;;17.90;89.70;;;;;;5129951;27;20031;-63
2023/08/28 10:24:16;;;;;;;3.17;1.20;;;17.80;90.10;;;;;;5109174;27;20027;-63
2023/08/28 10:26:43;;;;;;;0.95;0.30;;;18.00;94.30;;;;;;5125653;27;20039;-63
2023/08/28 10:29:10;;;;;;;0.40;0.35;;;18.30;94.30;;;;;;5120989;27;20050;-63
2023/08/28 10:31:38;;;;;;;0.80;0.38;;;18.50;90.40;;;;;;5110206;27;20050;-63
2023/08/28 10:34:08;;;;;;;3.88;0.30;;;18.80;82.00;;;;;;5131015;27;20038;-63
2023/08/28 10:36:35;;;;;;;2.00;0.40;;;19.20;90.30;;;;;;5133964;27;20046;-62
2023/08/28 10:39:02;;;;;;;1.08;0.47;;;19.40;51.80;;;;;;5115845;27;20122;-62
2023/08/28 10:41:29;;;;;;;0.57;0.52;;;19.60;42.80;;;;;;5136139;27;20664;-64
2023/08/28 10:43:57;;;;;;;2.03;0.47;;;19.60;63.40;;;;;;5116096;27;20047;-63
2023/08/28 10:46:27;;;;;;;1.38;0.40;;;19.40;33.70;;;;;;5137394;27;20809;-63
2023/08/28 10:48:57;;;;;;;0.88;0.50;;;19.20;34.90;;;;;;5099194;27;20051;-63
2023/08/28 10:51:36;;;;;;;1.13;0.32;;;19.00;51.90;;;;;;5132617;27;20172;-63
2023/08/28 10:54:06;;;;;;;2.20;0.60;;;19.10;53.60;;;;;;5115579;27;20045;-63
2023/08/28 10:56:33;;;;;;;1.40;0.30;;;19.20;48.20;;;;;;5112605;27;20503;-63
2023/08/28 10:59:18;;;;;;;0.65;0.35;;;19.40;64.80;;;;;;5119162;27;20050;-63
2023/08/28 11:01:57;;;;;;;1.20;0.45;;;19.60;59.00;;;;;;5109747;27;20047;-63
2023/08/28 11:04:31;;;;;;;2.67;0.90;;;19.70;52.10;;;;;;5108535;27;20514;-64
2023/08/28 11:06:57;;;;;;;2.47;0.50;;;19.80;47.10;;;;;;5118183;27;20096;-63
2023/08/28 11:09:28;;;;;;;1.88;0.70;;;19.80;60.60;;;;;;5117726;27;20027;-63
2023/08/28 11:11:57;;;;;;;3.80;0.70;;;19.60;34.30;;;;;;5117622;27;20039;-63
2023/08/28 11:14:32;;;;;;;1.80;0.73;;;19.40;42.10;;;;;;5096386;28;20095;-63
2023/08/28 11:17:16;;;;;;;0.93;0.55;;;19.10;54.20;;;;;;5132141;27;20058;-63
2023/08/28 11:19:54;;;;;;;1.48;0.43;;;18.90;57.80;;;;;;5136554;27;20046;-62
2023/08/28 11:22:41;;;;;;;0.60;0.40;;;18.80;76.40;;;;;;5126257;27;20042;-63
2023/08/28 11:25:09;;;;;;;1.02;0.60;;;18.60;81.80;;;;;;5131071;27;20427;-63
2023/08/28 11:27:48;;;;;;;3.25;0.60;;;18.50;87.70;;;;;;5126374;27;20047;-63
2023/08/28 11:30:16;;;;;;;1.50;0.80;;;18.50;91.20;;;;;;5109290;28;20532;-63
2023/08/28 11:32:47;;;;;;;1.17;0.50;;;18.50;95.70;;;;;;5092498;27;20111;-63
2023/08/28 11:35:16;;;;;;;1.98;0.57;;;18.50;96.90;;;;;;5127342;27;20395;-63
2023/08/28 11:37:45;;;;;;;;;;;18.60;96.40;;;;;;5125500;27;20496;-63
2023/08/28 11:40:11;;;;;;;0.95;0.47;;;18.60;96.30;;;;;;5150145;27;20518;-63
2023/08/28 11:42:38;;;;;;;4.35;0.98;;;18.70;96.70;;;;;;5132651;27;20491;-63
2023/08/28 11:45:05;;;;;;;2.00;0.75;;;18.80;96.60;;;;;;5145825;27;20042;-63
2023/08/28 11:47:32;;;;;;;3.75;0.73;;;19.00;96.00;;;;;;5141258;27;20134;-64
2023/08/28 11:49:59;;;;;;;1.50;0.55;;;19.00;87.10;;;;;;5150148;27;20515;-63
2023/08/28 11:52:25;;;;;;;2.90;0.70;;;19.10;84.00;;;;;;5131704;27;20117;-64
2023/08/28 11:54:57;;;;;;;1.08;0.40;;;19.20;86.70;;;;;;5131769;27;20509;-63
2023/08/28 11:57:25;;;;;;;2.95;0.57;;;19.20;81.00;;;;;;5119929;27;20038;-63
2023/08/28 11:59:52;;;;;;;0.47;0.40;;;19.20;70.90;;;;;;5149847;27;20050;-64
2023/08/28 12:02:19;;;;;;;3.95;0.73;;;19.10;64.70;;;;;;5122887;27;20515;-63
2023/08/28 12:04:50;;;;;;;2.03;0.55;;;19.00;74.60;;;;;;5151467;27;20046;-63
2023/08/28 12:07:23;;;;;;;0.40;0.40;;;18.90;65.90;;;;;;5104168;27;20246;-63
2023/08/28 12:09:50;;;;;;;0.98;0.50;;;18.80;71.30;;;;;;5150611;27;20039;-63
2023/08/28 12:12:16;;;;;;;2.95;0.60;;;18.90;88.50;;;;;;5137100;27;20047;-64
2023/08/28 12:14:43;;;;;;;0.85;0.60;;;19.00;91.20;;;;;;5129482;27;20480;-63
2023/08/28 12:17:27;;;;;;;0.63;0.40;;;19.20;84.60;;;;;;5107673;27;20061;-63
2023/08/28 12:19:53;;;;;;;0.70;0.50;;;19.30;73.60;;;;;;5144015;27;20055;-63
2023/08/28 12:22:21;;;;;;;0.80;0.40;;;19.20;64.60;;;;;;5144873;27;20046;-63
2023/08/28 12:24:51;;;;;;;0.40;0.40;;;19.30;66.50;;;;;;5135868;27;20500;-63
2023/08/28 12:27:24;;;;;;;0.50;0.38;;;19.20;58.20;;;;;;5117959;27;20042;-63
2023/08/28 12:29:50;;;;;;;2.15;0.50;;;19.10;41.60;;;;;;5127979;27;20077;-63
2023/08/28 12:32:19;;;;;;;4.18;0.57;;;19.00;47.10;;;;;;5133007;27;20122;-63
2023/08/28 12:34:48;;;;;;;2.08;0.80;;;19.00;67.50;;;;;;5112504;27;20435;-63
2023/08/28 12:37:15;;;;;;;2.65;0.50;;;19.10;65.50;;;;;;5130060;27;20043;-63
2023/08/28 12:39:49;;;;;;;2.17;0.82;;;19.30;66.20;;;;;;5130210;27;20035;-63
2023/08/28 12:42:19;;;;;;;3.13;0.50;;;19.30;62.40;;;;;;5130852;27;20045;-63
2023/08/28 12:44:45;;;;;;;0.50;0.50;;;19.30;59.10;;;;;;5114924;27;20047;-63
2023/08/28 12:47:17;;;;;;;1.30;0.65;;;19.20;68.70;;;;;;5131802;27;20043;-63
2023/08/28 12:49:43;;;;;;;7.65;0.65;;;19.10;64.10;;;;;;5130157;27;20039;-63
2023/08/28 12:52:10;;;;;;;2.38;0.60;;;19.00;57.70;;;;;;5130945;27;20044;-63